Time;durP1;ratioP1;P1;durP2;ratioP2;P2;SDS_P1;SDS_P2;PMS_P1;PMS_P2;Temp;Humidity;BMP_temperature;BMP_pressure;BME280_temperature;BME280_humidity;BME280_pressure;Samples;Min_cycle;Max_cycle;Signal;HPM_P1;HPM_P2
2022/02/04 00:09:39;;;;;;;34.57;17.00;;;0.10;99.90;;;;;;5039861;28;20211;-78
2022/02/04 00:20:28;;;;;;;41.80;18.90;;;;;;;;;;5056237;28;20222;-77
2022/02/04 00:25:37;;;;;;;37.17;15.77;;;-0.30;99.90;;;;;;5056001;28;20298;-78
2022/02/04 00:28:09;;;;;;;37.37;15.87;;;-0.20;99.90;;;;;;5054716;28;20251;-78
2022/02/04 00:30:40;;;;;;;40.70;17.23;;;-0.20;99.90;;;;;;5054718;28;20207;-78
2022/02/04 00:33:08;;;;;;;41.53;18.00;;;-0.10;99.90;;;;;;5055554;28;20179;-78
2022/02/04 00:38:17;;;;;;;49.97;23.13;;;-0.30;99.90;;;;;;5038600;28;20191;-78
2022/02/04 00:40:46;;;;;;;39.90;16.97;;;-0.60;99.90;;;;;;5056100;28;20604;-78
2022/02/04 00:43:14;;;;;;;39.70;17.73;;;-0.40;99.90;;;;;;5055252;28;20251;-78
2022/02/04 00:45:51;;;;;;;43.03;17.13;;;-0.20;99.90;;;;;;5054248;28;20202;-77
2022/02/04 00:53:41;;;;;;;35.90;18.03;;;-0.20;99.90;;;;;;5054020;28;20298;-78
2022/02/04 01:26:08;;;;;;;63.93;25.10;;;;;;;;;;5053645;28;20257;-78
2022/02/04 01:28:37;;;;;;;77.80;31.53;;;-0.80;99.90;;;;;;5038256;28;20187;-78
2022/02/04 01:31:04;;;;;;;65.87;28.80;;;-0.60;99.90;;;;;;5052819;28;20215;-78
2022/02/04 01:33:31;;;;;;;93.00;39.10;;;1.00;99.90;;;;;;5037122;28;20206;-78
2022/02/04 01:35:56;;;;;;;76.53;34.37;;;-0.90;99.90;;;;;;5052973;28;20184;-78
2022/02/04 01:38:23;;;;;;;70.03;28.50;;;-0.80;99.90;;;;;;5054666;28;20188;-78
2022/02/04 01:40:49;;;;;;;65.23;26.77;;;-0.10;99.90;;;;;;5036724;28;20180;-78
2022/02/04 01:43:21;;;;;;;71.83;29.20;;;-0.80;99.90;;;;;;5052674;28;20187;-78
2022/02/04 01:45:55;;;;;;;83.43;31.33;;;-0.90;99.90;;;;;;5037681;28;20217;-79
2022/02/04 01:48:21;;;;;;;91.37;34.37;;;;;;;;;;5054142;28;20518;-78
2022/02/04 01:50:49;;;;;;;93.03;33.97;;;-1.00;99.90;;;;;;5054350;28;20178;-78
2022/02/04 01:53:17;;;;;;;94.73;33.10;;;-1.10;99.90;;;;;;5052223;28;20241;-78
2022/02/04 01:55:44;;;;;;;82.40;33.43;;;-1.00;99.90;;;;;;5054038;28;20275;-77
2022/02/04 01:58:11;;;;;;;62.90;26.73;;;-0.60;99.90;;;;;;5053996;28;20288;-78
2022/02/04 02:00:38;;;;;;;52.97;24.37;;;-1.00;99.90;;;;;;5052773;28;20180;-78
2022/02/04 02:03:05;;;;;;;52.03;22.53;;;-0.90;99.90;;;;;;5052424;28;20261;-78
2022/02/04 02:05:32;;;;;;;44.17;20.63;;;-0.90;99.90;;;;;;5054104;28;20172;-77
2022/02/04 02:08:24;;;;;;;43.57;21.07;;;-0.90;99.90;;;;;;5052602;28;20183;-80
2022/02/04 02:10:50;;;;;;;47.93;18.53;;;-0.30;99.90;;;;;;5053242;28;20205;-77
2022/02/04 02:14:19;;;;;;;50.77;23.03;;;-1.00;99.90;;;;;;5060553;28;20191;-77
2022/02/04 02:41:01;;;;;;;34.70;13.77;;;-0.50;99.90;;;;;;5053280;28;20209;-78
2022/02/04 02:51:25;;;;;;;30.47;14.63;;;-0.30;99.90;;;;;;5052222;28;20224;-77
2022/02/04 02:53:56;;;;;;;29.87;13.70;;;-0.10;99.90;;;;;;5052844;28;20290;-77
2022/02/04 02:59:02;;;;;;;26.97;11.80;;;-0.20;99.90;;;;;;5053489;28;20197;-77
2022/02/04 03:01:29;;;;;;;34.03;14.30;;;-0.20;99.90;;;;;;5052983;28;20199;-78
2022/02/04 03:03:57;;;;;;;26.70;13.33;;;0.10;99.90;;;;;;5053191;28;20230;-78
2022/02/04 03:06:23;;;;;;;27.03;11.33;;;-0.10;99.90;;;;;;5051633;28;20182;-78
2022/02/04 03:08:49;;;;;;;27.40;12.77;;;-0.20;99.90;;;;;;5052874;28;20265;-78
2022/02/04 03:11:16;;;;;;;47.37;17.10;;;0.00;99.90;;;;;;5051553;28;20184;-78
2022/02/04 03:13:42;;;;;;;45.70;17.03;;;-0.20;99.90;;;;;;5052072;28;20531;-78
2022/02/04 03:16:12;;;;;;;39.80;15.87;;;-0.20;99.90;;;;;;5052649;28;20254;-79
2022/02/04 03:18:41;;;;;;;23.97;10.60;;;2.50;99.90;;;;;;5051569;28;20233;-78
2022/02/04 03:21:20;;;;;;;29.07;11.33;;;0.00;99.90;;;;;;5051469;28;20266;-79
2022/02/04 03:23:53;;;;;;;30.53;12.83;;;;;;;;;;5036996;28;20193;-78
2022/02/04 03:28:47;;;;;;;39.33;15.37;;;;;;;;;;5053461;28;20182;-78
2022/02/04 03:31:13;;;;;;;28.20;12.10;;;0.30;99.90;;;;;;5075005;28;20176;-79
2022/02/04 03:33:41;;;;;;;39.97;15.50;;;0.70;99.90;;;;;;5075473;28;20246;-79
2022/02/04 03:36:06;;;;;;;31.17;15.70;;;-0.10;99.90;;;;;;5058487;28;20235;-78
2022/02/04 03:38:32;;;;;;;22.13;10.13;;;0.10;99.90;;;;;;5043303;28;20631;-78
2022/02/04 03:40:58;;;;;;;21.40;10.73;;;;;;;;;;5060082;28;20654;-78
2022/02/04 03:43:24;;;;;;;27.37;10.80;;;;;;;;;;5061382;28;20180;-78
2022/02/04 03:45:50;;;;;;;21.90;10.20;;;0.20;99.90;;;;;;5062042;28;20534;-78
2022/02/04 03:48:16;;;;;;;26.40;12.40;;;;;;;;;;5048033;28;20199;-79
2022/02/04 03:50:42;;;;;;;28.20;12.20;;;;;;;;;;5084009;28;20177;-79
2022/02/04 03:53:15;;;;;;;25.63;10.83;;;0.00;99.90;;;;;;5082870;28;20222;-78
2022/02/04 03:55:42;;;;;;;27.17;11.50;;;0.30;99.90;;;;;;5083899;28;20153;-78
2022/02/04 03:58:11;;;;;;;25.90;11.27;;;0.30;99.90;;;;;;5083303;28;20258;-78
2022/02/04 04:00:37;;;;;;;25.57;11.83;;;;;;;;;;5065541;28;20220;-78
2022/02/04 04:03:03;;;;;;;18.90;10.27;;;0.50;99.90;;;;;;5060862;28;20211;-78
2022/02/04 04:05:30;;;;;;;22.47;11.23;;;0.30;99.90;;;;;;5053535;28;20232;-79
2022/02/04 04:07:56;;;;;;;20.67;10.90;;;;;;;;;;5082357;28;20172;-78
2022/02/04 04:10:25;;;;;;;26.13;12.07;;;0.30;99.90;;;;;;5082458;28;20202;-78
2022/02/04 04:12:53;;;;;;;22.53;11.20;;;0.30;99.90;;;;;;5065812;28;20183;-78
2022/02/04 04:15:19;;;;;;;24.47;11.50;;;0.40;99.90;;;;;;5062907;28;20191;-79
2022/02/04 04:17:46;;;;;;;27.70;10.97;;;0.40;99.90;;;;;;5059527;28;20250;-78
2022/02/04 04:20:17;;;;;;;23.43;12.03;;;0.30;99.90;;;;;;5058922;28;20179;-78
2022/02/04 04:22:43;;;;;;;27.13;11.60;;;0.20;99.90;;;;;;5059964;28;20216;-78
2022/02/04 04:25:11;;;;;;;182.17;59.03;;;0.30;99.90;;;;;;5059399;28;20591;-79
2022/02/04 04:27:37;;;;;;;270.40;65.23;;;0.50;99.90;;;;;;5058245;28;20180;-78
2022/02/04 04:30:04;;;;;;;36.70;15.60;;;0.40;99.90;;;;;;5041680;28;20183;-79
2022/02/04 04:32:30;;;;;;;31.27;13.93;;;0.40;99.90;;;;;;5057399;28;20265;-79
2022/02/04 04:34:56;;;;;;;74.70;21.57;;;1.10;99.90;;;;;;5058777;28;20180;-78
2022/02/04 04:37:23;;;;;;;306.10;100.53;;;0.40;99.90;;;;;;5040684;28;20629;-79
2022/02/04 04:42:29;;;;;;;27.30;13.17;;;;;;;;;;5050085;28;20708;-80
2022/02/04 05:28:53;;;;;;;85.70;30.57;;;;;;;;;;5053082;28;20191;-79
2022/02/04 05:31:19;;;;;;;42.63;17.90;;;0.60;99.90;;;;;;5052860;28;20187;-80
2022/02/04 05:33:45;;;;;;;42.23;16.23;;;0.50;99.90;;;;;;5050675;28;20262;-79
2022/02/04 05:36:11;;;;;;;60.33;26.03;;;0.60;99.90;;;;;;5051102;28;20189;-79
2022/02/04 05:38:39;;;;;;;45.10;18.40;;;0.60;99.90;;;;;;5050795;28;20541;-79
2022/02/04 05:41:07;;;;;;;102.43;36.17;;;0.60;99.90;;;;;;5050497;28;20192;-78
2022/02/04 05:43:36;;;;;;;78.57;36.00;;;0.70;99.90;;;;;;5050824;28;20191;-79
2022/02/04 05:46:07;;;;;;;125.43;49.70;;;0.60;99.90;;;;;;5035818;28;20188;-78
2022/02/04 05:48:36;;;;;;;141.07;52.80;;;;;;;;;;5050765;28;20176;-78
2022/02/04 05:56:42;;;;;;;39.87;18.03;;;0.60;99.90;;;;;;5052267;28;20206;-79
2022/02/04 06:04:42;;;;;;;106.90;42.20;;;0.50;99.90;;;;;;5049257;28;20226;-79
2022/02/04 06:23:28;;;;;;;68.63;29.97;;;0.30;99.90;;;;;;5053672;28;20238;-78
2022/02/04 06:25:54;;;;;;;48.27;26.60;;;;;;;;;;5052382;28;20184;-79
2022/02/04 06:28:20;;;;;;;33.13;16.37;;;0.60;99.90;;;;;;5052144;28;20178;-78
2022/02/04 06:30:46;;;;;;;26.50;16.17;;;0.80;99.90;;;;;;5053573;28;20175;-79
2022/02/04 06:33:12;;;;;;;52.23;21.90;;;;;;;;;;5053057;28;20175;-80
2022/02/04 06:35:41;;;;;;;40.00;19.43;;;0.60;99.90;;;;;;5055477;28;20183;-79
2022/02/04 06:38:07;;;;;;;25.57;14.87;;;0.50;99.90;;;;;;5054796;28;20172;-80
2022/02/04 06:40:33;;;;;;;35.70;20.37;;;1.30;99.90;;;;;;5020200;28;20184;-79
2022/02/04 06:42:58;;;;;;;48.27;22.57;;;0.50;99.90;;;;;;5036095;28;20672;-79
2022/02/04 06:45:24;;;;;;;118.33;45.33;;;0.70;99.90;;;;;;5053696;28;20313;-79
2022/02/04 06:47:50;;;;;;;40.93;20.30;;;1.90;99.90;;;;;;5054136;28;20237;-80
2022/02/04 06:50:16;;;;;;;45.63;21.77;;;1.20;99.90;;;;;;5054405;28;20172;-80
2022/02/04 06:52:43;;;;;;;89.10;36.97;;;;;;;;;;5055596;28;20216;-79
2022/02/04 06:55:10;;;;;;;82.40;33.77;;;0.60;99.90;;;;;;5055811;28;20233;-79
2022/02/04 06:57:36;;;;;;;49.87;23.13;;;2.80;99.90;;;;;;5056596;28;20237;-79
2022/02/04 07:00:04;;;;;;;40.93;18.70;;;0.60;99.90;;;;;;5054007;28;20527;-79
2022/02/04 07:02:30;;;;;;;66.57;28.77;;;;;;;;;;5052343;28;20207;-78
2022/02/04 07:04:56;;;;;;;42.57;20.17;;;0.70;99.90;;;;;;5053033;28;20202;-79
2022/02/04 07:07:22;;;;;;;30.70;15.60;;;1.00;99.90;;;;;;5055623;28;20179;-78
2022/02/04 07:09:57;;;;;;;52.33;22.77;;;;;;;;;;5041148;28;20184;-79
2022/02/04 07:12:35;;;;;;;34.63;16.60;;;;;;;;;;5039435;28;20639;-79
2022/02/04 07:17:54;;;;;;;30.77;16.57;;;0.80;99.90;;;;;;5052452;28;20219;-79
2022/02/04 07:20:19;;;;;;;29.53;14.33;;;1.00;99.90;;;;;;5060014;28;20203;-78
2022/02/04 07:22:45;;;;;;;28.37;15.27;;;0.70;99.90;;;;;;5071980;28;20286;-77
2022/02/04 07:25:12;;;;;;;33.47;14.73;;;2.30;99.90;;;;;;5061913;28;20191;-79
2022/02/04 07:27:40;;;;;;;52.70;21.07;;;;;;;;;;5053042;28;20187;-79
2022/02/04 07:30:06;;;;;;;25.17;13.37;;;1.00;99.90;;;;;;5052811;28;20197;-79
2022/02/04 07:32:40;;;;;;;27.27;13.13;;;0.70;99.90;;;;;;5052294;28;20184;-79
2022/02/04 07:40:54;;;;;;;26.67;14.27;;;;;;;;;;5053787;28;20691;-80
2022/02/04 07:43:20;;;;;;;27.83;14.03;;;;;;;;;;5041129;28;20225;-79
2022/02/04 07:45:48;;;;;;;28.07;11.83;;;1.00;99.90;;;;;;5034962;28;20195;-78
2022/02/04 07:48:14;;;;;;;31.50;15.50;;;1.00;99.90;;;;;;5053368;28;20240;-79
2022/02/04 07:50:40;;;;;;;38.10;15.83;;;;;;;;;;5036335;28;20624;-80
2022/02/04 07:53:05;;;;;;;39.73;15.70;;;0.90;99.90;;;;;;5036873;28;20239;-79
2022/02/04 07:55:31;;;;;;;32.60;15.77;;;1.00;99.90;;;;;;5035865;28;20282;-79
2022/02/04 07:57:57;;;;;;;32.80;15.77;;;1.10;99.90;;;;;;5018182;28;20199;-80
2022/02/04 08:00:23;;;;;;;35.20;17.97;;;1.10;99.90;;;;;;5034918;28;20320;-79
2022/02/04 08:02:49;;;;;;;41.80;19.87;;;1.10;99.90;;;;;;5051368;28;20207;-79
2022/02/04 08:05:19;;;;;;;44.70;19.53;;;;;;;;;;5053359;28;20644;-80
2022/02/04 08:08:03;;;;;;;33.03;16.10;;;;;;;;;;5031583;28;20184;-79
2022/02/04 08:10:53;;;;;;;31.83;16.73;;;1.00;99.90;;;;;;5035567;28;20625;-80
2022/02/04 08:16:17;;;;;;;41.80;19.43;;;1.10;99.90;;;;;;5031348;28;20192;-82
2022/02/04 08:38:21;;;;;;;31.97;15.73;;;1.20;99.90;;;;;;5043708;28;20191;-81
2022/02/04 08:56:08;;;;;;;35.17;16.90;;;1.50;99.90;;;;;;5057981;28;20203;-81
2022/02/04 08:58:40;;;;;;;31.00;15.93;;;;;;;;;;5037924;28;20184;-81
2022/02/04 09:01:10;;;;;;;27.07;14.03;;;1.40;99.90;;;;;;5054122;28;20226;-81
2022/02/04 09:06:18;;;;;;;34.60;17.67;;;;;;;;;;5055297;28;20179;-81
2022/02/04 09:09:11;;;;;;;32.40;16.83;;;1.50;99.90;;;;;;5055193;28;20200;-81
2022/02/04 09:24:45;;;;;;;50.13;23.93;;;1.60;99.90;;;;;;5054304;28;20286;-80
2022/02/04 09:27:11;;;;;;;46.83;25.53;;;2.80;99.90;;;;;;5054905;28;20172;-81
2022/02/04 09:29:36;;;;;;;39.60;19.43;;;1.70;99.90;;;;;;5054578;28;20180;-81
2022/02/04 09:32:02;;;;;;;47.97;23.83;;;1.70;99.90;;;;;;5037076;28;20188;-81
2022/02/04 09:34:28;;;;;;;38.50;19.00;;;1.60;99.90;;;;;;5020963;28;20191;-80
2022/02/04 09:36:54;;;;;;;31.90;17.47;;;1.70;99.90;;;;;;5039880;28;20197;-81
2022/02/04 09:39:20;;;;;;;27.90;14.97;;;;;;;;;;5021474;28;20657;-81
2022/02/04 09:41:46;;;;;;;38.33;15.97;;;;;;;;;;5054040;28;20640;-80
2022/02/04 09:44:12;;;;;;;35.03;16.23;;;;;;;;;;5053931;28;20197;-80
2022/02/04 09:46:39;;;;;;;28.93;15.57;;;1.70;99.90;;;;;;5054295;28;20185;-81
2022/02/04 09:49:13;;;;;;;26.77;15.57;;;1.70;99.90;;;;;;5036751;28;20225;-80
2022/02/04 10:04:21;;;;;;;31.07;14.80;;;1.30;99.90;;;;;;5056047;28;20183;-81
2022/02/04 10:17:10;;;;;;;38.60;17.40;;;1.80;99.90;;;;;;5053879;28;20329;-82
2022/02/04 10:19:49;;;;;;;35.73;17.83;;;2.00;99.90;;;;;;5062935;28;20168;-82
2022/02/04 10:22:24;;;;;;;44.07;22.37;;;2.50;99.90;;;;;;5033387;28;20327;-81
2022/02/04 10:24:54;;;;;;;39.37;20.07;;;1.80;99.90;;;;;;5032313;28;20324;-84
2022/02/04 10:27:21;;;;;;;36.83;18.23;;;3.50;99.90;;;;;;5032722;28;20242;-82
2022/02/04 10:29:51;;;;;;;34.33;17.33;;;2.00;99.90;;;;;;5033968;28;20253;-81
2022/02/04 10:32:23;;;;;;;38.33;19.17;;;2.00;99.90;;;;;;5032363;28;20185;-82
2022/02/04 10:35:00;;;;;;;34.13;17.70;;;2.00;99.90;;;;;;5046642;28;20594;-82
2022/02/04 10:37:29;;;;;;;32.53;18.07;;;2.10;99.90;;;;;;5053208;28;20695;-84
2022/02/04 10:40:03;;;;;;;33.97;18.07;;;2.30;99.90;;;;;;5051752;28;20223;-80
2022/02/04 10:42:44;;;;;;;32.47;16.20;;;2.10;99.90;;;;;;5051568;28;20568;-82
2022/02/04 11:04:22;;;;;;;26.43;12.97;;;2.50;99.90;;;;;;5042533;28;20197;-80
2022/02/04 11:52:01;;;;;;;23.53;13.83;;;3.00;99.90;;;;;;5059109;28;20189;-80
2022/02/04 11:54:35;;;;;;;23.03;12.73;;;3.00;99.90;;;;;;5056325;28;20233;-81
2022/02/04 11:57:04;;;;;;;18.30;9.77;;;2.90;99.90;;;;;;5064063;28;20266;-80
2022/02/04 11:59:44;;;;;;;25.00;13.17;;;3.10;99.90;;;;;;5056980;28;20235;-80
2022/02/04 12:05:09;;;;;;;24.27;14.33;;;2.80;99.90;;;;;;5064894;28;20252;-80
2022/02/04 12:07:39;;;;;;;27.37;15.77;;;2.90;99.90;;;;;;5059723;28;20318;-81
2022/02/04 12:10:19;;;;;;;22.03;12.13;;;3.00;99.90;;;;;;5050745;28;20268;-82
2022/02/04 12:13:11;;;;;;;27.10;14.17;;;3.00;99.90;;;;;;5053510;28;20195;-80
2022/02/04 12:15:57;;;;;;;27.97;14.57;;;2.80;99.90;;;;;;5058546;28;20187;-80
2022/02/04 12:18:52;;;;;;;28.47;14.17;;;2.90;99.90;;;;;;5072122;28;20208;-79
2022/02/04 12:21:20;;;;;;;28.73;13.17;;;3.10;99.90;;;;;;5075254;28;20242;-84
2022/02/04 12:23:50;;;;;;;28.07;15.77;;;3.30;99.90;;;;;;5077859;28;20201;-80
2022/02/04 12:26:18;;;;;;;25.53;13.90;;;3.30;99.90;;;;;;5062518;28;20544;-80
2022/02/04 12:29:09;;;;;;;24.33;13.43;;;3.50;99.90;;;;;;5063529;28;20178;-80
2022/02/04 12:31:40;;;;;;;27.47;14.73;;;3.50;99.90;;;;;;5063275;28;20210;-80
2022/02/04 12:34:11;;;;;;;25.83;14.60;;;3.50;99.90;;;;;;5059236;28;20615;-80
2022/02/04 12:36:46;;;;;;;25.63;14.17;;;3.60;99.90;;;;;;5055413;28;20199;-80
2022/02/04 12:39:26;;;;;;;25.30;14.20;;;3.60;99.90;;;;;;5067141;28;20186;-85
2022/02/04 12:41:54;;;;;;;26.93;14.20;;;3.60;99.90;;;;;;5054374;28;20718;-81
2022/02/04 12:44:23;;;;;;;24.43;12.20;;;3.60;99.90;;;;;;5068676;28;20190;-82
2022/02/04 12:46:56;;;;;;;24.57;14.53;;;3.50;99.90;;;;;;5075844;28;20641;-81
2022/02/04 12:49:25;;;;;;;24.17;13.30;;;3.50;99.90;;;;;;5067048;28;20175;-81
2022/02/04 12:51:58;;;;;;;23.90;13.47;;;3.40;99.90;;;;;;5056555;28;20184;-82
2022/02/04 12:54:51;;;;;;;24.87;13.87;;;3.10;99.90;;;;;;5055325;28;20306;-82
2022/02/04 12:57:35;;;;;;;27.03;14.40;;;3.30;99.90;;;;;;5055270;28;20212;-80
2022/02/04 13:10:18;;;;;;;29.57;15.53;;;3.10;99.90;;;;;;5054038;28;20184;-82
2022/02/04 13:12:54;;;;;;;30.87;14.33;;;3.20;99.90;;;;;;5054274;28;20268;-81
2022/02/04 13:15:21;;;;;;;29.00;14.63;;;3.30;99.90;;;;;;5054143;28;20638;-82
2022/02/04 13:17:47;;;;;;;29.73;15.43;;;3.20;99.90;;;;;;5037394;28;20579;-81
2022/02/04 13:20:16;;;;;;;28.50;14.47;;;;;;;;;;5055496;28;20622;-83
2022/02/04 13:22:42;;;;;;;27.10;14.73;;;3.30;99.90;;;;;;5054184;28;20765;-82
2022/02/04 13:25:10;;;;;;;26.70;14.37;;;3.30;99.90;;;;;;5037520;28;20180;-81
2022/02/04 13:27:36;;;;;;;28.77;14.33;;;3.30;99.90;;;;;;5054824;28;20180;-81
2022/02/04 13:30:25;;;;;;;31.83;15.63;;;3.60;99.90;;;;;;5054689;28;20315;-80
2022/02/04 13:32:51;;;;;;;29.27;14.27;;;3.30;99.90;;;;;;5054150;28;20709;-81
2022/02/04 13:35:38;;;;;;;29.60;15.30;;;3.30;99.90;;;;;;5053783;28;20239;-81
2022/02/04 13:38:21;;;;;;;30.70;14.87;;;3.40;99.90;;;;;;5053786;28;20276;-80
2022/02/04 13:40:59;;;;;;;27.67;14.53;;;3.80;99.90;;;;;;5053513;28;20178;-81
2022/02/04 13:43:43;;;;;;;25.20;13.70;;;3.20;99.90;;;;;;5054495;28;20220;-80
2022/02/04 13:46:23;;;;;;;27.17;14.53;;;3.20;99.90;;;;;;5054875;28;20172;-80
2022/02/04 13:49:00;;;;;;;29.30;15.10;;;3.20;99.90;;;;;;5055158;28;20178;-81
2022/02/04 13:51:45;;;;;;;32.40;16.47;;;6.90;99.90;;;;;;5037670;28;20186;-81
2022/02/04 13:56:59;;;;;;;28.97;15.30;;;3.30;99.90;;;;;;5054571;28;20185;-80
2022/02/04 13:59:38;;;;;;;27.30;14.73;;;3.20;99.90;;;;;;5052648;28;20210;-82
2022/02/04 14:02:16;;;;;;;27.70;15.57;;;2.90;99.90;;;;;;5053101;28;20269;-80
2022/02/04 14:04:58;;;;;;;28.50;15.77;;;3.20;99.90;;;;;;5054124;28;20209;-81
2022/02/04 14:07:39;;;;;;;27.33;14.83;;;3.20;99.90;;;;;;5052643;28;20225;-81
2022/02/04 14:10:29;;;;;;;33.67;16.37;;;3.50;99.90;;;;;;5054028;28;20176;-80
2022/02/04 14:13:10;;;;;;;26.90;15.47;;;3.10;99.90;;;;;;5054712;28;20527;-81
2022/02/04 14:15:37;;;;;;;26.93;15.37;;;3.70;99.90;;;;;;5053323;28;20255;-81
2022/02/04 14:18:09;;;;;;;26.90;14.80;;;3.40;99.90;;;;;;5036171;28;20181;-80
2022/02/04 14:20:37;;;;;;;28.83;15.43;;;3.20;99.90;;;;;;5051718;28;20654;-80
2022/02/04 14:23:05;;;;;;;25.43;15.23;;;3.20;99.90;;;;;;5053224;28;20215;-80
2022/02/04 14:25:32;;;;;;;26.90;14.40;;;3.20;99.90;;;;;;5051726;28;20215;-79
2022/02/04 14:28:01;;;;;;;32.87;16.10;;;3.20;99.90;;;;;;5053082;28;20653;-81
2022/02/04 14:30:34;;;;;;;29.00;15.57;;;;;;;;;;5051539;28;20180;-80
2022/02/04 14:33:10;;;;;;;31.30;16.13;;;3.10;99.90;;;;;;5051568;28;20199;-80
2022/02/04 14:36:02;;;;;;;30.57;17.03;;;3.50;99.90;;;;;;5036862;28;20246;-81
2022/02/04 14:49:53;;;;;;;25.60;14.43;;;;;;;;;;5052650;28;20196;-84
2022/02/04 15:03:26;;;;;;;43.13;22.30;;;;;;;;;;5041525;28;20206;-84
2022/02/04 15:08:35;;;;;;;56.30;30.63;;;3.10;99.90;;;;;;5044731;28;20191;-83
2022/02/04 15:11:03;;;;;;;36.73;19.40;;;2.90;99.90;;;;;;5050921;28;20187;-81
2022/02/04 15:13:31;;;;;;;71.93;36.27;;;3.10;99.90;;;;;;5051360;28;20187;-80
2022/02/04 15:15:58;;;;;;;53.77;34.17;;;;;;;;;;5051126;28;20208;-81
2022/02/04 15:18:23;;;;;;;36.60;20.90;;;3.10;99.90;;;;;;5069814;28;20171;-80
2022/02/04 15:20:53;;;;;;;511.47;308.80;;;3.50;99.90;;;;;;5071031;28;20179;-80
2022/02/04 15:23:19;;;;;;;430.67;207.47;;;3.10;99.90;;;;;;5052027;28;20773;-80
2022/02/04 15:25:51;;;;;;;711.60;380.00;;;3.10;99.90;;;;;;5049302;28;20222;-80
2022/02/04 15:28:42;;;;;;;623.50;320.77;;;3.00;99.90;;;;;;5064632;28;20225;-81
2022/02/04 15:31:03;;;;;;;507.50;245.63;;;3.00;99.90;;;;;;5071556;28;20214;-81
2022/02/04 15:33:34;;;;;;;755.03;422.90;;;;;;;;;;5054748;28;20184;-82
2022/02/04 15:36:00;;;;;;;596.73;322.50;;;;;;;;;;5050857;28;20637;-80
2022/02/04 15:38:27;;;;;;;171.30;87.67;;;2.90;99.90;;;;;;5040268;28;20649;-82
2022/02/04 15:40:53;;;;;;;441.37;180.37;;;2.70;99.90;;;;;;5058910;28;20712;-79
2022/02/04 15:43:19;;;;;;;185.97;82.47;;;2.90;99.90;;;;;;5057975;28;20335;-80
2022/02/04 15:48:25;;;;;;;80.67;46.17;;;2.90;99.90;;;;;;5051157;28;20184;-81
2022/02/04 15:51:13;;;;;;;100.07;50.90;;;2.90;99.90;;;;;;5052028;28;20180;-81
2022/02/04 15:57:53;;;;;;;192.70;103.17;;;2.90;99.90;;;;;;5002054;28;20189;-81
2022/02/04 16:02:26;;;;;;;57.30;36.23;;;3.00;99.90;;;;;;5039391;28;20683;-80
2022/02/04 16:04:53;;;;;;;38.23;18.47;;;2.90;99.90;;;;;;5067996;28;20718;-81
2022/02/04 16:07:21;;;;;;;46.27;27.37;;;;;;;;;;5074621;28;20635;-80
2022/02/04 16:09:52;;;;;;;42.23;19.97;;;2.90;99.90;;;;;;5068289;28;20183;-82
2022/02/04 16:12:22;;;;;;;31.27;17.50;;;2.90;99.90;;;;;;5051723;28;20219;-80
2022/02/04 16:14:59;;;;;;;61.63;29.30;;;3.10;99.90;;;;;;5059600;28;20224;-80
2022/02/04 16:17:31;;;;;;;51.50;27.17;;;5.00;99.90;;;;;;5038527;28;20270;-80
2022/02/04 16:20:24;;;;;;;44.93;23.93;;;2.70;99.90;;;;;;5051362;28;20691;-83
2022/02/04 16:23:07;;;;;;;61.70;31.20;;;3.20;99.90;;;;;;5054962;28;20249;-81
2022/02/04 16:31:01;;;;;;;39.33;20.57;;;3.00;99.90;;;;;;5050579;28;20245;-81
2022/02/04 16:33:26;;;;;;;45.40;25.30;;;3.40;99.90;;;;;;5050893;28;20642;-80
2022/02/04 16:35:52;;;;;;;52.67;29.20;;;;;;;;;;5051368;28;20180;-80
2022/02/04 16:38:19;;;;;;;46.87;26.83;;;3.00;99.90;;;;;;5054432;28;20641;-80
2022/02/04 16:40:47;;;;;;;39.23;19.53;;;3.00;99.90;;;;;;5054983;28;20227;-81
2022/02/04 16:43:16;;;;;;;35.37;19.20;;;3.00;99.90;;;;;;5060955;28;20224;-80
2022/02/04 16:45:41;;;;;;;33.53;17.10;;;3.10;99.90;;;;;;5037274;28;20202;-85
2022/02/04 16:48:07;;;;;;;33.07;17.10;;;3.10;99.90;;;;;;5054028;28;20185;-82
2022/02/04 16:50:33;;;;;;;38.90;18.00;;;3.00;99.90;;;;;;5055348;28;20221;-81
2022/02/04 16:52:59;;;;;;;30.80;17.17;;;3.00;99.90;;;;;;5036940;28;20277;-81
2022/02/04 16:55:25;;;;;;;31.47;16.90;;;3.10;99.90;;;;;;5053670;28;20180;-81
2022/02/04 16:57:51;;;;;;;35.17;15.70;;;3.10;99.90;;;;;;5052469;28;20194;-80
2022/02/04 17:00:22;;;;;;;33.33;17.90;;;3.10;99.90;;;;;;5073385;28;20198;-80
2022/02/04 17:02:49;;;;;;;39.37;21.60;;;3.80;99.90;;;;;;5073478;28;20292;-81
2022/02/04 17:05:17;;;;;;;32.20;16.03;;;3.40;99.90;;;;;;5064009;28;20271;-80
2022/02/04 17:07:51;;;;;;;36.03;15.90;;;3.30;99.90;;;;;;5061926;28;20183;-80
2022/02/04 17:10:19;;;;;;;32.43;16.80;;;3.20;99.90;;;;;;5049200;28;20249;-81
2022/02/04 17:12:45;;;;;;;33.17;17.50;;;3.20;99.90;;;;;;5056817;28;20528;-86
2022/02/04 17:15:10;;;;;;;35.73;18.87;;;3.20;99.90;;;;;;5073235;28;20179;-82
2022/02/04 17:17:36;;;;;;;32.73;17.87;;;3.20;99.90;;;;;;5073309;28;20215;-81
2022/02/04 17:20:13;;;;;;;39.93;18.87;;;3.30;99.90;;;;;;5073358;28;20177;-81
2022/02/04 17:22:40;;;;;;;32.27;15.80;;;;;;;;;;5067757;28;20284;-80
2022/02/04 17:25:09;;;;;;;28.77;16.33;;;3.50;99.90;;;;;;5052437;28;20185;-81
2022/02/04 17:27:40;;;;;;;32.67;17.50;;;3.20;99.90;;;;;;5060172;28;20180;-81
2022/02/04 17:30:10;;;;;;;35.70;17.17;;;3.20;99.90;;;;;;5063675;28;20247;-82
2022/02/04 17:32:36;;;;;;;33.60;18.37;;;3.10;99.90;;;;;;5061456;28;20186;-80
2022/02/04 17:35:03;;;;;;;32.70;18.17;;;3.10;99.90;;;;;;5053391;28;20183;-81
2022/02/04 17:37:29;;;;;;;33.20;16.97;;;;;;;;;;5052323;28;20187;-81
2022/02/04 17:39:55;;;;;;;43.23;20.90;;;;;;;;;;5060981;28;20186;-81
2022/02/04 17:42:26;;;;;;;36.70;18.27;;;3.10;99.90;;;;;;5061666;28;20216;-80
2022/02/04 17:44:53;;;;;;;34.93;18.10;;;3.00;99.90;;;;;;5052553;28;20184;-80
2022/02/04 17:47:24;;;;;;;33.47;18.13;;;3.10;99.90;;;;;;5059471;28;20233;-81
2022/02/04 17:49:57;;;;;;;35.60;18.00;;;3.90;99.90;;;;;;5032724;28;20186;-82
2022/02/04 17:52:37;;;;;;;35.20;17.70;;;;;;;;;;5052453;28;20723;-80
2022/02/04 17:55:10;;;;;;;35.27;17.83;;;3.20;99.90;;;;;;5052977;28;20199;-81
2022/02/04 18:08:27;;;;;;;34.93;18.13;;;2.80;99.90;;;;;;5008817;28;20682;-80
2022/02/04 18:10:54;;;;;;;37.43;18.40;;;2.90;99.90;;;;;;4977983;28;20184;-80
2022/02/04 18:13:20;;;;;;;35.53;17.70;;;;;;;;;;5018384;28;20199;-81
2022/02/04 18:15:46;;;;;;;29.50;14.90;;;2.70;99.90;;;;;;5034136;28;20230;-81
2022/02/04 18:18:14;;;;;;;34.70;18.07;;;2.80;99.90;;;;;;5060903;28;20189;-80
2022/02/04 18:20:40;;;;;;;35.07;17.07;;;2.70;99.90;;;;;;5063340;28;20217;-82
2022/02/04 18:23:06;;;;;;;30.63;17.63;;;2.50;99.90;;;;;;5050567;28;20675;-82
2022/02/04 18:25:33;;;;;;;35.00;18.30;;;2.70;99.90;;;;;;5025119;28;20187;-81
2022/02/04 18:27:59;;;;;;;36.57;18.50;;;2.70;99.90;;;;;;5058048;28;20181;-81
2022/02/04 18:30:28;;;;;;;34.77;17.77;;;2.80;99.90;;;;;;5058602;28;20312;-83
2022/02/04 18:32:54;;;;;;;33.67;17.63;;;;;;;;;;5049456;28;20189;-85
2022/02/04 18:35:20;;;;;;;35.83;18.20;;;;;;;;;;5056639;28;20202;-82
2022/02/04 18:37:57;;;;;;;34.67;18.73;;;2.70;99.90;;;;;;5057230;28;20573;-81
2022/02/04 18:43:21;;;;;;;38.80;18.60;;;2.50;99.90;;;;;;5058194;28;20271;-81
2022/02/04 18:45:49;;;;;;;33.93;18.60;;;;;;;;;;5053743;28;20196;-82
2022/02/04 18:48:19;;;;;;;34.93;19.27;;;2.40;99.90;;;;;;5061571;28;20253;-85
2022/02/04 18:51:04;;;;;;;31.33;17.03;;;2.60;99.90;;;;;;5065372;28;20275;-81
2022/02/04 18:53:36;;;;;;;45.70;22.67;;;2.40;99.90;;;;;;5035316;28;20687;-81
2022/02/04 18:56:31;;;;;;;39.93;18.97;;;;;;;;;;5063786;28;20546;-81
2022/02/04 18:58:57;;;;;;;45.90;18.87;;;2.30;99.90;;;;;;5056717;28;20186;-84
2022/02/04 19:01:26;;;;;;;57.43;33.10;;;2.70;99.90;;;;;;5066004;28;20175;-80
2022/02/04 19:03:57;;;;;;;62.33;34.40;;;2.40;99.90;;;;;;5059723;28;20180;-82
2022/02/04 19:06:29;;;;;;;44.90;28.80;;;2.30;99.90;;;;;;5034352;28;20207;-81
2022/02/04 19:08:57;;;;;;;43.73;23.10;;;2.50;99.90;;;;;;5050067;28;20233;-80
2022/02/04 19:11:31;;;;;;;46.60;25.97;;;2.30;99.90;;;;;;5048300;28;20190;-81
2022/02/04 19:15:19;;;;;;;45.17;24.20;;;2.40;99.90;;;;;;5051147;28;20188;-80
2022/02/04 19:16:59;;;;;;;67.80;37.07;;;2.70;99.90;;;;;;5046703;28;20188;-81
2022/02/04 19:22:17;;;;;;;63.97;32.23;;;2.40;99.90;;;;;;5059378;28;20236;-80
2022/02/04 19:24:46;;;;;;;101.53;42.63;;;2.50;99.90;;;;;;5058747;28;20184;-81
2022/02/04 19:27:12;;;;;;;105.53;46.90;;;;;;;;;;5062032;28;20301;-80
2022/02/04 19:29:45;;;;;;;108.10;51.97;;;;;;;;;;5059976;28;20236;-80
2022/02/04 19:32:12;;;;;;;90.63;52.73;;;2.60;99.90;;;;;;5059985;28;20191;-79
2022/02/04 19:34:38;;;;;;;54.10;29.47;;;2.40;99.90;;;;;;5060868;28;20201;-80
2022/02/04 19:37:04;;;;;;;41.33;21.57;;;2.20;99.90;;;;;;5033406;28;20846;-82